sensor_id;sensor_type;location;lat;lon;timestamp;pressure;altitude;pressure_sealevel;temperature;humidity
5298;BME280;14738;42.668;23.250;2022-09-28T00:01:36;48469.72;;;-141.90;100.00
5298;BME280;14738;42.668;23.250;2022-09-28T00:04:02;48461.78;;;-141.90;100.00
5298;BME280;14738;42.668;23.250;2022-09-28T00:06:29;48471.69;;;-141.90;100.00
5298;BME280;14738;42.668;23.250;2022-09-28T00:08:55;48469.72;;;-141.90;100.00
5298;BME280;14738;42.668;23.250;2022-09-28T00:11:23;48441.91;;;-141.90;100.00
5298;BME280;14738;42.668;23.250;2022-09-28T00:13:53;48471.69;;;-141.90;100.00
5298;BME280;14738;42.668;23.250;2022-09-28T00:16:24;48453.81;;;-141.90;100.00
5298;BME280;14738;42.668;23.250;2022-09-28T00:18:50;48457.81;;;-141.90;100.00
5298;BME280;14738;42.668;23.250;2022-09-28T00:21:37;48469.72;;;-141.90;100.00
5298;BME280;14738;42.668;23.250;2022-09-28T00:24:04;48459.78;;;-141.90;100.00
5298;BME280;14738;42.668;23.250;2022-09-28T00:26:49;48465.75;;;-141.90;100.00
5298;BME280;14738;42.668;23.250;2022-09-28T00:29:27;48461.78;;;-141.90;100.00
5298;BME280;14738;42.668;23.250;2022-09-28T00:31:55;48455.81;;;-141.90;100.00
5298;BME280;14738;42.668;23.250;2022-09-28T00:34:27;48455.81;;;-141.90;100.00
5298;BME280;14738;42.668;23.250;2022-09-28T00:36:53;48463.75;;;-141.90;100.00
5298;BME280;14738;42.668;23.250;2022-09-28T00:39:18;48443.91;;;-141.90;100.00
5298;BME280;14738;42.668;23.250;2022-09-28T00:41:44;48445.88;;;-141.90;100.00
5298;BME280;14738;42.668;23.250;2022-09-28T00:46:58;48477.66;;;-141.90;100.00
5298;BME280;14738;42.668;23.250;2022-09-28T00:49:35;48475.66;;;-141.90;100.00
5298;BME280;14738;42.668;23.250;2022-09-28T00:52:05;48477.66;;;-141.90;100.00
5298;BME280;14738;42.668;23.250;2022-09-28T00:54:33;48461.78;;;-141.90;100.00
5298;BME280;14738;42.668;23.250;2022-09-28T00:56:59;48457.81;;;-141.90;100.00
5298;BME280;14738;42.668;23.250;2022-09-28T00:59:26;48453.81;;;-141.90;100.00
5298;BME280;14738;42.668;23.250;2022-09-28T01:01:52;48491.56;;;-141.90;100.00
5298;BME280;14738;42.668;23.250;2022-09-28T01:04:17;48414.13;;;-141.90;100.00
5298;BME280;14738;42.668;23.250;2022-09-28T01:06:44;48489.56;;;-141.90;100.00
5298;BME280;14738;42.668;23.250;2022-09-28T01:09:12;48499.50;;;-141.90;100.00
5298;BME280;14738;42.668;23.250;2022-09-28T01:11:38;48481.63;;;-141.90;100.00
5298;BME280;14738;42.668;23.250;2022-09-28T01:14:09;48459.78;;;-141.90;100.00
5298;BME280;14738;42.668;23.250;2022-09-28T01:28:17;48443.91;;;-141.90;100.00
5298;BME280;14738;42.668;23.250;2022-09-28T01:31:04;48412.13;;;-141.90;100.00
5298;BME280;14738;42.668;23.250;2022-09-28T01:33:40;48461.78;;;-141.90;100.00
5298;BME280;14738;42.668;23.250;2022-09-28T01:36:29;48473.69;;;-141.90;100.00
5298;BME280;14738;42.668;23.250;2022-09-28T01:39:04;48469.72;;;-141.90;100.00
5298;BME280;14738;42.668;23.250;2022-09-28T01:41:34;48453.81;;;-141.90;100.00
5298;BME280;14738;42.668;23.250;2022-09-28T01:44:01;48481.63;;;-141.90;100.00
5298;BME280;14738;42.668;23.250;2022-09-28T01:46:48;48457.81;;;-141.90;100.00
5298;BME280;14738;42.668;23.250;2022-09-28T01:49:20;48459.78;;;-141.90;100.00
5298;BME280;14738;42.668;23.250;2022-09-28T01:52:09;48485.59;;;-141.90;100.00
5298;BME280;14738;42.668;23.250;2022-09-28T01:54:42;48493.53;;;-141.90;100.00
5298;BME280;14738;42.668;23.250;2022-09-28T02:00:04;48481.63;;;-141.90;100.00
5298;BME280;14738;42.668;23.250;2022-09-28T02:02:35;48445.88;;;-141.90;100.00
5298;BME280;14738;42.668;23.250;2022-09-28T02:05:15;48475.66;;;-141.90;100.00
5298;BME280;14738;42.668;23.250;2022-09-28T02:07:58;48451.84;;;-141.90;100.00
5298;BME280;14738;42.668;23.250;2022-09-28T02:10:32;48455.81;;;-141.90;100.00
5298;BME280;14738;42.668;23.250;2022-09-28T02:13:04;48489.56;;;-141.90;100.00
5298;BME280;14738;42.668;23.250;2022-09-28T02:15:39;48453.81;;;-141.90;100.00
5298;BME280;14738;42.668;23.250;2022-09-28T02:18:07;48483.59;;;-141.90;100.00
5298;BME280;14738;42.668;23.250;2022-09-28T02:20:35;48463.75;;;-141.90;100.00
5298;BME280;14738;42.668;23.250;2022-09-28T02:23:02;48457.81;;;-141.90;100.00
5298;BME280;14738;42.668;23.250;2022-09-28T02:25:46;48475.66;;;-141.90;100.00
5298;BME280;14738;42.668;23.250;2022-09-28T02:28:14;48477.66;;;-141.90;100.00
5298;BME280;14738;42.668;23.250;2022-09-28T02:30:41;48449.84;;;-141.90;100.00
5298;BME280;14738;42.668;23.250;2022-09-28T02:33:15;48443.91;;;-141.90;100.00
5298;BME280;14738;42.668;23.250;2022-09-28T02:35:43;48485.59;;;-141.90;100.00
5298;BME280;14738;42.668;23.250;2022-09-28T02:38:13;48479.63;;;-141.90;100.00
5298;BME280;14738;42.668;23.250;2022-09-28T02:40:43;48465.75;;;-141.90;100.00
5298;BME280;14738;42.668;23.250;2022-09-28T02:46:04;48485.59;;;-141.90;100.00
5298;BME280;14738;42.668;23.250;2022-09-28T02:54:29;48469.72;;;-141.90;100.00
5298;BME280;14738;42.668;23.250;2022-09-28T02:57:09;48497.50;;;-141.90;100.00
5298;BME280;14738;42.668;23.250;2022-09-28T02:59:52;48469.72;;;-141.90;100.00
5298;BME280;14738;42.668;23.250;2022-09-28T03:02:30;48485.59;;;-141.90;100.00
5298;BME280;14738;42.668;23.250;2022-09-28T03:07:44;48437.94;;;-141.90;100.00
5298;BME280;14738;42.668;23.250;2022-09-28T03:10:31;48445.88;;;-141.90;100.00
5298;BME280;14738;42.668;23.250;2022-09-28T03:12:58;48449.84;;;-141.90;100.00
5298;BME280;14738;42.668;23.250;2022-09-28T03:15:29;48471.69;;;-141.90;100.00
5298;BME280;14738;42.668;23.250;2022-09-28T03:17:56;48487.56;;;-141.90;100.00
5298;BME280;14738;42.668;23.250;2022-09-28T03:20:22;48457.81;;;-141.90;100.00
5298;BME280;14738;42.668;23.250;2022-09-28T03:22:47;48461.78;;;-141.90;100.00
5298;BME280;14738;42.668;23.250;2022-09-28T03:25:13;48477.66;;;-141.90;100.00
5298;BME280;14738;42.668;23.250;2022-09-28T03:27:40;48485.59;;;-141.90;100.00
5298;BME280;14738;42.668;23.250;2022-09-28T03:30:07;48461.78;;;-141.90;100.00
5298;BME280;14738;42.668;23.250;2022-09-28T03:32:32;48463.75;;;-141.90;100.00
5298;BME280;14738;42.668;23.250;2022-09-28T03:34:58;48475.66;;;-141.90;100.00
5298;BME280;14738;42.668;23.250;2022-09-28T03:37:23;48453.81;;;-141.90;100.00
5298;BME280;14738;42.668;23.250;2022-09-28T03:39:48;48473.69;;;-141.90;100.00
5298;BME280;14738;42.668;23.250;2022-09-28T03:42:14;48491.56;;;-141.90;100.00
5298;BME280;14738;42.668;23.250;2022-09-28T03:44:39;48453.81;;;-141.90;100.00
5298;BME280;14738;42.668;23.250;2022-09-28T03:47:06;48447.88;;;-141.90;100.00
5298;BME280;14738;42.668;23.250;2022-09-28T03:49:33;48455.81;;;-141.90;100.00
5298;BME280;14738;42.668;23.250;2022-09-28T03:51:58;48493.53;;;-141.90;100.00
5298;BME280;14738;42.668;23.250;2022-09-28T03:54:23;48495.53;;;-141.90;100.00
5298;BME280;14738;42.668;23.250;2022-09-28T03:56:49;48408.16;;;-141.90;100.00
5298;BME280;14738;42.668;23.250;2022-09-28T03:59:16;48483.59;;;-141.90;100.00
5298;BME280;14738;42.668;23.250;2022-09-28T04:01:41;48501.47;;;-141.90;100.00
5298;BME280;14738;42.668;23.250;2022-09-28T04:04:12;48489.56;;;-141.90;100.00
5298;BME280;14738;42.668;23.250;2022-09-28T04:06:38;48485.59;;;-141.90;100.00
5298;BME280;14738;42.668;23.250;2022-09-28T04:09:04;48473.69;;;-141.90;100.00
5298;BME280;14738;42.668;23.250;2022-09-28T04:11:30;48499.50;;;-141.90;100.00
5298;BME280;14738;42.668;23.250;2022-09-28T04:13:55;48493.53;;;-141.90;100.00
5298;BME280;14738;42.668;23.250;2022-09-28T04:16:21;48443.91;;;-141.90;100.00
5298;BME280;14738;42.668;23.250;2022-09-28T04:18:46;48485.59;;;-141.90;100.00
5298;BME280;14738;42.668;23.250;2022-09-28T04:21:17;48471.69;;;-141.90;100.00
5298;BME280;14738;42.668;23.250;2022-09-28T04:23:44;48487.56;;;-141.90;100.00
5298;BME280;14738;42.668;23.250;2022-09-28T04:26:16;48477.66;;;-141.90;100.00
5298;BME280;14738;42.668;23.250;2022-09-28T04:28:43;48489.56;;;-141.90;100.00
5298;BME280;14738;42.668;23.250;2022-09-28T04:31:27;48487.56;;;-141.90;100.00
5298;BME280;14738;42.668;23.250;2022-09-28T04:33:55;48477.66;;;-141.90;100.00
5298;BME280;14738;42.668;23.250;2022-09-28T04:36:24;48477.66;;;-141.90;100.00
5298;BME280;14738;42.668;23.250;2022-09-28T04:38:52;48501.47;;;-141.90;100.00
5298;BME280;14738;42.668;23.250;2022-09-28T04:41:20;48453.81;;;-141.90;100.00
5298;BME280;14738;42.668;23.250;2022-09-28T04:43:47;48517.34;;;-141.90;100.00
5298;BME280;14738;42.668;23.250;2022-09-28T04:46:12;48477.66;;;-141.90;100.00
5298;BME280;14738;42.668;23.250;2022-09-28T04:48:38;48477.66;;;-141.90;100.00
5298;BME280;14738;42.668;23.250;2022-09-28T04:51:03;48483.59;;;-141.90;100.00
5298;BME280;14738;42.668;23.250;2022-09-28T04:53:29;48475.66;;;-141.90;100.00
5298;BME280;14738;42.668;23.250;2022-09-28T04:56:03;48426.03;;;-141.90;100.00
5298;BME280;14738;42.668;23.250;2022-09-28T04:58:29;48489.56;;;-141.90;100.00
5298;BME280;14738;42.668;23.250;2022-09-28T05:01:00;48469.72;;;-141.90;100.00
5298;BME280;14738;42.668;23.250;2022-09-28T05:03:26;48477.66;;;-141.90;100.00
5298;BME280;14738;42.668;23.250;2022-09-28T05:05:51;48475.66;;;-141.90;100.00
5298;BME280;14738;42.668;23.250;2022-09-28T05:08:17;48475.66;;;-141.90;100.00
5298;BME280;14738;42.668;23.250;2022-09-28T05:10:43;48473.69;;;-141.90;100.00
5298;BME280;14738;42.668;23.250;2022-09-28T05:13:11;48511.41;;;-141.90;100.00
5298;BME280;14738;42.668;23.250;2022-09-28T05:15:38;48495.53;;;-141.90;100.00
5298;BME280;14738;42.668;23.250;2022-09-28T05:18:04;48497.50;;;-141.90;100.00
5298;BME280;14738;42.668;23.250;2022-09-28T05:20:30;48517.34;;;-141.90;100.00
5298;BME280;14738;42.668;23.250;2022-09-28T05:22:57;48533.25;;;-141.90;100.00
5298;BME280;14738;42.668;23.250;2022-09-28T05:25:23;48497.50;;;-141.90;100.00
5298;BME280;14738;42.668;23.250;2022-09-28T05:27:54;48499.50;;;-141.90;100.00
5298;BME280;14738;42.668;23.250;2022-09-28T05:30:20;48515.38;;;-141.90;100.00
5298;BME280;14738;42.668;23.250;2022-09-28T05:32:47;48549.13;;;-141.90;100.00
5298;BME280;14738;42.668;23.250;2022-09-28T05:35:15;48559.06;;;-141.90;100.00
5298;BME280;14738;42.668;23.250;2022-09-28T05:37:41;48549.13;;;-141.90;100.00
5298;BME280;14738;42.668;23.250;2022-09-28T05:40:07;48545.16;;;-141.90;100.00
5298;BME280;14738;42.668;23.250;2022-09-28T05:42:32;48622.59;;;-141.90;100.00
5298;BME280;14738;42.668;23.250;2022-09-28T05:44:58;48634.50;;;-141.90;43.90
5298;BME280;14738;42.668;23.250;2022-09-28T05:47:24;48620.59;;;-141.90;43.35
5298;BME280;14738;42.668;23.250;2022-09-28T05:49:51;48616.63;;;-141.90;43.06
5298;BME280;14738;42.668;23.250;2022-09-28T05:52:18;48628.53;;;-141.90;42.26
5298;BME280;14738;42.668;23.250;2022-09-28T05:54:44;48604.72;;;-141.90;41.63
5298;BME280;14738;42.668;23.250;2022-09-28T05:57:10;48584.84;;;-141.90;43.10
5298;BME280;14738;42.668;23.250;2022-09-28T05:59:36;48565.00;;;-141.90;43.53
5298;BME280;14738;42.668;23.250;2022-09-28T06:02:03;48503.47;;;-141.90;48.49
5298;BME280;14738;42.668;23.250;2022-09-28T06:04:29;48493.53;;;-141.90;53.61
5298;BME280;14738;42.668;23.250;2022-09-28T06:06:55;48511.41;;;-141.90;59.98
5298;BME280;14738;42.668;23.250;2022-09-28T06:09:21;48509.41;;;-141.90;58.24
5298;BME280;14738;42.668;23.250;2022-09-28T06:11:52;48491.56;;;-141.90;55.27
5298;BME280;14738;42.668;23.250;2022-09-28T06:14:18;48477.66;;;-141.90;58.42
5298;BME280;14738;42.668;23.250;2022-09-28T06:16:44;48513.38;;;-141.90;64.82
5298;BME280;14738;42.668;23.250;2022-09-28T06:19:10;48501.47;;;-141.90;71.14
5298;BME280;14738;42.668;23.250;2022-09-28T06:21:36;48481.63;;;-141.90;71.01
5298;BME280;14738;42.668;23.250;2022-09-28T06:24:03;48509.41;;;-141.90;71.24
5298;BME280;14738;42.668;23.250;2022-09-28T06:26:29;48481.63;;;-141.90;77.04
5298;BME280;14738;42.668;23.250;2022-09-28T06:28:54;48491.56;;;-141.90;75.23
5298;BME280;14738;42.668;23.250;2022-09-28T06:31:20;48525.31;;;-141.90;74.21
5298;BME280;14738;42.668;23.250;2022-09-28T06:33:51;48489.56;;;-141.90;70.64
5298;BME280;14738;42.668;23.250;2022-09-28T06:36:17;48503.47;;;-141.90;66.94
5298;BME280;14738;42.668;23.250;2022-09-28T06:38:43;48501.47;;;-141.90;63.70
5298;BME280;14738;42.668;23.250;2022-09-28T06:41:10;48493.53;;;-141.90;63.89
5298;BME280;14738;42.668;23.250;2022-09-28T06:43:35;48485.59;;;-141.90;69.79
5298;BME280;14738;42.668;23.250;2022-09-28T06:46:05;48511.41;;;-141.90;77.27
5298;BME280;14738;42.668;23.250;2022-09-28T06:48:31;48493.53;;;-141.90;87.39
5298;BME280;14738;42.668;23.250;2022-09-28T06:50:59;48483.59;;;-141.90;80.04
5298;BME280;14738;42.668;23.250;2022-09-28T06:53:25;48473.69;;;-141.90;98.83
5298;BME280;14738;42.668;23.250;2022-09-28T06:55:54;48477.66;;;-141.90;100.00
5298;BME280;14738;42.668;23.250;2022-09-28T06:58:21;48541.19;;;-141.90;100.00
5298;BME280;14738;42.668;23.250;2022-09-28T07:00:49;48509.41;;;-141.90;100.00
5298;BME280;14738;42.668;23.250;2022-09-28T07:03:17;48539.19;;;-141.90;100.00
5298;BME280;14738;42.668;23.250;2022-09-28T07:05:46;48529.28;;;-141.90;100.00
5298;BME280;14738;42.668;23.250;2022-09-28T07:08:13;48541.19;;;-141.90;100.00
5298;BME280;14738;42.668;23.250;2022-09-28T07:10:46;48521.34;;;-141.90;100.00
5298;BME280;14738;42.668;23.250;2022-09-28T07:13:15;48543.16;;;-141.90;100.00
5298;BME280;14738;42.668;23.250;2022-09-28T07:15:41;48501.47;;;-141.90;100.00
5298;BME280;14738;42.668;23.250;2022-09-28T07:18:09;48499.50;;;-141.90;100.00
5298;BME280;14738;42.668;23.250;2022-09-28T07:20:36;48551.09;;;-141.90;100.00
5298;BME280;14738;42.668;23.250;2022-09-28T07:23:04;48509.41;;;-141.90;100.00
5298;BME280;14738;42.668;23.250;2022-09-28T07:25:31;48557.06;;;-141.90;100.00
5298;BME280;14738;42.668;23.250;2022-09-28T07:28:02;48517.34;;;-141.90;100.00
5298;BME280;14738;42.668;23.250;2022-09-28T07:30:30;48535.22;;;-141.90;100.00
5298;BME280;14738;42.668;23.250;2022-09-28T07:33:00;48549.13;;;-141.90;100.00
5298;BME280;14738;42.668;23.250;2022-09-28T07:35:26;48541.19;;;-141.90;100.00
5298;BME280;14738;42.668;23.250;2022-09-28T07:38:04;48523.31;;;-141.90;100.00
5298;BME280;14738;42.668;23.250;2022-09-28T07:40:31;48501.47;;;-141.90;100.00
5298;BME280;14738;42.668;23.250;2022-09-28T07:43:16;48529.28;;;-141.90;100.00
5298;BME280;14738;42.668;23.250;2022-09-28T07:45:45;48495.53;;;-141.90;100.00
5298;BME280;14738;42.668;23.250;2022-09-28T07:48:12;48545.16;;;-141.90;100.00
5298;BME280;14738;42.668;23.250;2022-09-28T07:50:41;48533.25;;;-141.90;100.00
5298;BME280;14738;42.668;23.250;2022-09-28T07:53:07;48561.03;;;-141.90;100.00
5298;BME280;14738;42.668;23.250;2022-09-28T07:55:32;48537.22;;;-141.90;100.00
5298;BME280;14738;42.668;23.250;2022-09-28T07:57:58;48533.25;;;-141.90;100.00
5298;BME280;14738;42.668;23.250;2022-09-28T08:00:26;48499.50;;;-141.90;100.00
5298;BME280;14738;42.668;23.250;2022-09-28T08:02:51;48511.41;;;-141.90;100.00
5298;BME280;14738;42.668;23.250;2022-09-28T08:05:17;48521.34;;;-141.90;100.00
5298;BME280;14738;42.668;23.250;2022-09-28T08:07:43;48529.28;;;-141.90;100.00
5298;BME280;14738;42.668;23.250;2022-09-28T08:10:09;48549.13;;;-141.90;100.00
5298;BME280;14738;42.668;23.250;2022-09-28T08:12:34;48523.31;;;-141.90;100.00
5298;BME280;14738;42.668;23.250;2022-09-28T08:15:00;48584.84;;;-141.90;100.00
5298;BME280;14738;42.668;23.250;2022-09-28T08:17:25;48549.13;;;-141.90;100.00
5298;BME280;14738;42.668;23.250;2022-09-28T08:19:51;48515.38;;;-141.90;100.00
5298;BME280;14738;42.668;23.250;2022-09-28T08:22:35;48557.06;;;-141.90;100.00
5298;BME280;14738;42.668;23.250;2022-09-28T08:25:01;48495.53;;;-141.90;100.00
5298;BME280;14738;42.668;23.250;2022-09-28T08:27:27;48551.09;;;-141.90;100.00
5298;BME280;14738;42.668;23.250;2022-09-28T08:29:52;48541.19;;;-141.90;100.00
5298;BME280;14738;42.668;23.250;2022-09-28T08:32:17;48541.19;;;-141.90;100.00
5298;BME280;14738;42.668;23.250;2022-09-28T08:34:44;48527.28;;;-141.90;100.00
5298;BME280;14738;42.668;23.250;2022-09-28T08:37:10;48529.28;;;-141.90;100.00
5298;BME280;14738;42.668;23.250;2022-09-28T08:39:35;48533.25;;;-141.90;100.00
5298;BME280;14738;42.668;23.250;2022-09-28T08:42:33;48541.19;;;-141.90;100.00
5298;BME280;14738;42.668;23.250;2022-09-28T08:45:17;48547.13;;;-141.90;100.00
5298;BME280;14738;42.668;23.250;2022-09-28T08:50:31;48521.34;;;-141.90;100.00
5298;BME280;14738;42.668;23.250;2022-09-28T08:53:22;48559.06;;;-141.90;100.00
5298;BME280;14738;42.668;23.250;2022-09-28T08:55:51;48535.22;;;-141.90;100.00
5298;BME280;14738;42.668;23.250;2022-09-28T08:58:22;48531.25;;;-141.90;100.00
5298;BME280;14738;42.668;23.250;2022-09-28T09:00:50;48531.25;;;-141.90;100.00
5298;BME280;14738;42.668;23.250;2022-09-28T09:03:29;48553.09;;;-141.90;100.00
5298;BME280;14738;42.668;23.250;2022-09-28T09:06:12;48563.03;;;-141.90;100.00
5298;BME280;14738;42.668;23.250;2022-09-28T09:08:50;48517.34;;;-141.90;100.00
5298;BME280;14738;42.668;23.250;2022-09-28T09:14:18;48537.22;;;-141.90;100.00
5298;BME280;14738;42.668;23.250;2022-09-28T09:22:49;48582.88;;;-141.90;100.00
5298;BME280;14738;42.668;23.250;2022-09-28T09:25:22;48543.16;;;-141.90;100.00
5298;BME280;14738;42.668;23.250;2022-09-28T09:30:54;48565.00;;;-141.90;100.00
5298;BME280;14738;42.668;23.250;2022-09-28T09:33:39;48568.97;;;-141.90;100.00
5298;BME280;14738;42.668;23.250;2022-09-28T09:39:08;48598.75;;;-141.90;99.31
5298;BME280;14738;42.668;23.250;2022-09-28T09:44:44;48592.81;;;-141.90;95.81
5298;BME280;14738;42.668;23.250;2022-09-28T09:50:23;48576.91;;;-141.90;43.08
5298;BME280;14738;42.668;23.250;2022-09-28T09:55:46;48588.84;;;-141.90;42.73
5298;BME280;14738;42.668;23.250;2022-09-28T09:58:37;48559.06;;;-141.90;42.03
5298;BME280;14738;42.668;23.250;2022-09-28T10:01:31;48586.84;;;-141.90;41.19
5298;BME280;14738;42.668;23.250;2022-09-28T10:03:57;48588.84;;;-141.90;41.63
5298;BME280;14738;42.668;23.250;2022-09-28T10:06:32;48594.78;;;-141.90;41.53
5298;BME280;14738;42.668;23.250;2022-09-28T10:09:07;48598.75;;;-141.90;40.87
5298;BME280;14738;42.668;23.250;2022-09-28T10:11:38;48620.59;;;-141.90;41.01
5298;BME280;14738;42.668;23.250;2022-09-28T10:14:14;48624.56;;;-141.90;40.87
5298;BME280;14738;42.668;23.250;2022-09-28T10:16:43;48596.78;;;-141.90;41.09
5298;BME280;14738;42.668;23.250;2022-09-28T10:19:12;48618.59;;;-141.90;40.88
5298;BME280;14738;42.668;23.250;2022-09-28T10:21:40;48594.78;;;-141.90;42.08
5298;BME280;14738;42.668;23.250;2022-09-28T10:24:32;48632.50;;;-141.90;40.37
5298;BME280;14738;42.668;23.250;2022-09-28T10:27:25;48449.84;;;-141.90;40.59
5298;BME280;14738;42.668;23.250;2022-09-28T10:32:36;48596.78;;;-141.90;39.39
5298;BME280;14738;42.668;23.250;2022-09-28T10:40:41;48541.19;;;-141.90;38.44
5298;BME280;14738;42.668;23.250;2022-09-28T10:43:31;48624.56;;;-141.90;38.43
5298;BME280;14738;42.668;23.250;2022-09-28T10:46:05;48622.59;;;-141.90;38.48
5298;BME280;14738;42.668;23.250;2022-09-28T10:51:10;48624.56;;;-141.90;36.67
5298;BME280;14738;42.668;23.250;2022-09-28T10:53:36;48590.81;;;-141.90;35.98
5298;BME280;14738;42.668;23.250;2022-09-28T10:56:20;48630.53;;;-141.90;37.15
5298;BME280;14738;42.668;23.250;2022-09-28T10:58:46;48608.69;;;-141.90;36.19
5298;BME280;14738;42.668;23.250;2022-09-28T11:01:16;48608.69;;;-141.90;36.23
5298;BME280;14738;42.668;23.250;2022-09-28T11:06:30;48616.63;;;-141.90;35.73
5298;BME280;14738;42.668;23.250;2022-09-28T11:09:00;48608.69;;;-141.90;36.63
5298;BME280;14738;42.668;23.250;2022-09-28T11:11:28;48628.53;;;-141.90;37.13
5298;BME280;14738;42.668;23.250;2022-09-28T11:14:00;48582.88;;;-141.90;36.71
5298;BME280;14738;42.668;23.250;2022-09-28T11:16:33;48640.44;;;-141.90;36.21
5298;BME280;14738;42.668;23.250;2022-09-28T11:21:45;48660.31;;;-141.90;36.41
5298;BME280;14738;42.668;23.250;2022-09-28T11:26:45;48624.56;;;-141.90;34.60
5298;BME280;14738;42.668;23.250;2022-09-28T11:31:51;48640.44;;;-141.90;33.92
5298;BME280;14738;42.668;23.250;2022-09-28T11:34:23;48640.44;;;-141.90;34.79
5298;BME280;14738;42.668;23.250;2022-09-28T11:40:43;48668.25;;;-141.90;33.51
5298;BME280;14738;42.668;23.250;2022-09-28T11:43:06;48682.13;;;-141.90;35.85
5298;BME280;14738;42.668;23.250;2022-09-28T11:45:45;48676.19;;;-141.90;32.96
5298;BME280;14738;42.668;23.250;2022-09-28T11:48:15;48666.25;;;-141.90;32.64
5298;BME280;14738;42.668;23.250;2022-09-28T11:50:49;48680.16;;;-141.90;31.90
5298;BME280;14738;42.668;23.250;2022-09-28T11:53:38;48698.03;;;-141.90;30.89
5298;BME280;14738;42.668;23.250;2022-09-28T11:58:43;48711.91;;;-141.90;30.62
5298;BME280;14738;42.668;23.250;2022-09-28T12:01:48;48723.84;;;-141.90;30.92
5298;BME280;14738;42.668;23.250;2022-09-28T12:04:24;48711.91;;;-141.90;30.11
5298;BME280;14738;42.668;23.250;2022-09-28T12:06:54;48680.16;;;-141.90;30.38
5298;BME280;14738;42.668;23.250;2022-09-28T12:12:37;48678.16;;;-141.90;31.07
5298;BME280;14738;42.668;23.250;2022-09-28T12:15:16;48668.25;;;-141.90;31.16
5298;BME280;14738;42.668;23.250;2022-09-28T12:17:47;48666.25;;;-141.90;30.49
5298;BME280;14738;42.668;23.250;2022-09-28T12:20:20;48656.34;;;-141.90;31.55
5298;BME280;14738;42.668;23.250;2022-09-28T12:23:11;48672.22;;;-141.90;30.65
5298;BME280;14738;42.668;23.250;2022-09-28T12:25:44;48632.50;;;-141.90;30.98
5298;BME280;14738;42.668;23.250;2022-09-28T12:28:21;48662.28;;;-141.90;31.96
5298;BME280;14738;42.668;23.250;2022-09-28T12:30:50;48686.13;;;-141.90;30.35
5298;BME280;14738;42.668;23.250;2022-09-28T12:33:17;48694.06;;;-141.90;30.72
5298;BME280;14738;42.668;23.250;2022-09-28T13:00:13;48646.41;;;-141.90;31.29
5298;BME280;14738;42.668;23.250;2022-09-28T13:17:35;48614.63;;;-141.90;32.23
5298;BME280;14738;42.668;23.250;2022-09-28T13:20:24;48606.69;;;-141.90;33.65
5298;BME280;14738;42.668;23.250;2022-09-28T13:22:58;48624.56;;;-141.90;35.08
5298;BME280;14738;42.668;23.250;2022-09-28T13:25:31;48622.59;;;-141.90;35.11
5298;BME280;14738;42.668;23.250;2022-09-28T13:28:02;48610.66;;;-141.90;34.86
5298;BME280;14738;42.668;23.250;2022-09-28T13:30:28;48644.41;;;-141.90;33.03
5298;BME280;14738;42.668;23.250;2022-09-28T13:32:56;48616.63;;;-141.90;33.94
5298;BME280;14738;42.668;23.250;2022-09-28T13:35:23;48608.69;;;-141.90;33.84
5298;BME280;14738;42.668;23.250;2022-09-28T13:43:32;48602.72;;;-141.90;34.16
5298;BME280;14738;42.668;23.250;2022-09-28T13:46:05;48588.84;;;-141.90;33.98
5298;BME280;14738;42.668;23.250;2022-09-28T13:48:45;48624.56;;;-141.90;34.53
5298;BME280;14738;42.668;23.250;2022-09-28T13:57:04;48612.66;;;-141.90;32.21
5298;BME280;14738;42.668;23.250;2022-09-28T13:59:49;48604.72;;;-141.90;32.24
5298;BME280;14738;42.668;23.250;2022-09-28T14:11:22;48578.91;;;-141.90;32.72
5298;BME280;14738;42.668;23.250;2022-09-28T14:16:21;48610.66;;;-141.90;32.84
5298;BME280;14738;42.668;23.250;2022-09-28T14:18:51;48572.94;;;-141.90;33.00
5298;BME280;14738;42.668;23.250;2022-09-28T14:29:37;48576.91;;;-141.90;34.88
5298;BME280;14738;42.668;23.250;2022-09-28T14:32:23;48557.06;;;-141.90;35.15
5298;BME280;14738;42.668;23.250;2022-09-28T14:35:01;48586.84;;;-141.90;36.95
5298;BME280;14738;42.668;23.250;2022-09-28T14:37:36;48559.06;;;-141.90;35.38
5298;BME280;14738;42.668;23.250;2022-09-28T14:40:55;48565.00;;;-141.90;35.38
5298;BME280;14738;42.668;23.250;2022-09-28T14:59:31;48572.94;;;-141.90;32.32
5298;BME280;14738;42.668;23.250;2022-09-28T15:02:07;48565.00;;;-141.90;35.29
5298;BME280;14738;42.668;23.250;2022-09-28T15:04:52;48572.94;;;-141.90;33.65
5298;BME280;14738;42.668;23.250;2022-09-28T15:07:34;48584.84;;;-141.90;34.75
5298;BME280;14738;42.668;23.250;2022-09-28T15:10:20;48568.97;;;-141.90;35.09
5298;BME280;14738;42.668;23.250;2022-09-28T15:12:46;48555.09;;;-141.90;34.83
5298;BME280;14738;42.668;23.250;2022-09-28T15:20:39;48523.31;;;-141.90;36.34
5298;BME280;14738;42.668;23.250;2022-09-28T15:23:32;48545.16;;;-141.90;37.82
5298;BME280;14738;42.668;23.250;2022-09-28T15:25:58;48555.09;;;-141.90;36.70
5298;BME280;14738;42.668;23.250;2022-09-28T15:28:23;48523.31;;;-141.90;36.76
5298;BME280;14738;42.668;23.250;2022-09-28T15:30:49;48559.06;;;-141.90;37.13
5298;BME280;14738;42.668;23.250;2022-09-28T15:33:45;48533.25;;;-141.90;37.42
5298;BME280;14738;42.668;23.250;2022-09-28T15:36:32;48501.47;;;-141.90;37.44
5298;BME280;14738;42.668;23.250;2022-09-28T15:41:32;48539.19;;;-141.90;37.66
5298;BME280;14738;42.668;23.250;2022-09-28T15:46:37;48519.34;;;-141.90;38.51
5298;BME280;14738;42.668;23.250;2022-09-28T15:49:04;48509.41;;;-141.90;38.08
5298;BME280;14738;42.668;23.250;2022-09-28T15:51:31;48521.34;;;-141.90;38.29
5298;BME280;14738;42.668;23.250;2022-09-28T15:54:15;48503.47;;;-141.90;38.94
5298;BME280;14738;42.668;23.250;2022-09-28T15:56:51;48517.34;;;-141.90;39.77